LEVD/VLL METAR and TAF weather

Enter ICAO airport designator
Station Type Date Time Source
LEVD METAR 2021/08/04 20:00 UTC NOAA

LEVD 042000Z AUTO 33008KT CAVOK 22/07 Q1019


Station Type Date Time Source
LEVD Decoded METAR 2021/08/04 20:00 UTC NOAA

Valladolid / Villanubla, Spain (LEVD) 41-43N 004-51W 846M
Aug 04, 2021 - 04:00 PM EDT / 2021.08.04 2000 UTC
Wind: from the NNW (330 degrees) at 9 MPH (8 KT):0
Visibility: greater than 7 mile(s):0
Temperature: 71 F (22 C)
Dew Point: 44 F (7 C)
Relative Humidity: 37%
Pressure (altimeter): 30.09 in. Hg (1019 hPa)
ob: LEVD 042000Z AUTO 33008KT CAVOK 22/07 Q1019
cycle: 20

Station Type Date Time Source
LEVD TAF 2021/08/04 15:29 UTC NOAA

TAF LEVD 041400Z 0415/0515 31012KT 9999 FEW040 TX30/0415Z TN14/0505Z
TEMPO 0423/0502 04007KT
TEMPO 0502/0508 VRB05KT
BECMG 0509/0512 26011KT PROB40
TEMPO 0512/0515 27015G27KT

Example: see airport list